createdAt,value
2022-12-23T00:02:42.185Z,99161.47
2022-12-23T00:07:45.919Z,99163.22
2022-12-23T00:13:07.627Z,99161.00
2022-12-23T00:18:10.448Z,99157.13
2022-12-23T00:23:13.229Z,99143.31
2022-12-23T00:28:18.225Z,99137.16
2022-12-23T00:33:21.711Z,99137.69
2022-12-23T00:38:38.586Z,99128.84
2022-12-23T00:43:42.941Z,99127.88
2022-12-23T00:49:03.328Z,99121.25
2022-12-23T00:54:06.338Z,99115.38
2022-12-23T00:59:10.789Z,99118.88
2022-12-23T01:04:31.121Z,99117.63
2022-12-23T01:09:33.857Z,99120.47
2022-12-23T01:14:38.248Z,99113.00
2022-12-23T01:19:41.027Z,99113.59
2022-12-23T01:24:43.852Z,99112.06
2022-12-23T01:29:48.241Z,99106.13
2022-12-23T01:34:51.002Z,99102.88
2022-12-23T01:39:53.774Z,99106.41
2022-12-23T01:44:59.895Z,99095.41
2022-12-23T01:50:06.593Z,99082.47
2022-12-23T01:55:09.468Z,99087.81
2022-12-23T02:00:31.682Z,99094.44
2022-12-23T02:05:34.521Z,99082.19
2022-12-23T02:10:40.931Z,99085.84
2022-12-23T02:16:04.460Z,99086.28
2022-12-23T02:21:14.306Z,99075.44
2022-12-23T02:26:37.679Z,99066.81
2022-12-23T02:31:43.890Z,99072.75
2022-12-23T02:36:48.714Z,99070.91
2022-12-23T02:41:53.533Z,99065.56
2022-12-23T02:46:58.783Z,99067.50
2022-12-23T02:52:03.243Z,99063.00
2022-12-23T02:57:06.455Z,99067.66
2022-12-23T03:02:10.698Z,99068.97
2022-12-23T03:07:19.321Z,99073.22
2022-12-23T03:12:25.163Z,99069.63
2022-12-23T03:17:37.154Z,99086.88
2022-12-23T03:22:41.722Z,99078.41
2022-12-23T03:27:45.955Z,99078.88
2022-12-23T03:32:51.966Z,99074.75
2022-12-23T03:37:55.443Z,99086.63
2022-12-23T03:43:00.122Z,99086.91
2022-12-23T03:48:06.204Z,99087.34
2022-12-23T03:53:10.591Z,99092.16
2022-12-23T03:58:15.417Z,99094.81
2022-12-23T04:03:20.673Z,99089.75
2022-12-23T04:08:25.627Z,99099.59
2022-12-23T04:13:28.399Z,99096.38
2022-12-23T04:18:32.526Z,99087.50
2022-12-23T04:23:35.336Z,99083.41
2022-12-23T04:28:38.071Z,99087.09
2022-12-23T04:33:42.427Z,99090.03
2022-12-23T04:38:45.207Z,99089.34
2022-12-23T04:43:53.114Z,99101.88
2022-12-23T04:48:57.709Z,99099.34
2022-12-23T04:54:00.558Z,99094.25
2022-12-23T04:59:04.238Z,99098.75
2022-12-23T05:04:08.356Z,99090.03
2022-12-23T05:09:11.160Z,99089.19
2022-12-23T05:14:14.217Z,99093.84
2022-12-23T05:19:18.358Z,99110.88
2022-12-23T05:24:21.526Z,99112.84
2022-12-23T05:29:24.479Z,99112.97
2022-12-23T05:34:28.889Z,99113.97
2022-12-23T05:39:31.696Z,99124.81
2022-12-23T05:44:34.674Z,99119.59
2022-12-23T05:49:38.937Z,99122.41
2022-12-23T05:54:41.797Z,99129.63
2022-12-23T05:59:45.257Z,99138.78
2022-12-23T06:04:49.760Z,99146.38
2022-12-23T06:09:52.532Z,99146.38
2022-12-23T06:14:55.359Z,99140.16
2022-12-23T06:19:59.963Z,99145.81
2022-12-23T06:25:02.820Z,99153.00
2022-12-23T06:30:06.463Z,99144.66
2022-12-23T06:35:10.986Z,99161.03
2022-12-23T06:40:14.450Z,99165.66
2022-12-23T06:45:17.605Z,99163.97
2022-12-23T06:50:21.746Z,99172.97
2022-12-23T06:55:24.869Z,99181.00
2022-12-23T07:00:27.661Z,99190.03
2022-12-23T07:05:37.051Z,99200.72
2022-12-23T07:10:40.406Z,99191.16
2022-12-23T07:15:43.327Z,99195.53
2022-12-23T07:20:47.624Z,99182.28
2022-12-23T07:25:50.475Z,99192.13
2022-12-23T07:30:53.388Z,99196.66
2022-12-23T07:36:00.235Z,99208.59
2022-12-23T07:41:03.069Z,99220.13
2022-12-23T07:46:09.166Z,99225.50
2022-12-23T07:51:13.697Z,99220.41
2022-12-23T07:56:16.702Z,99223.94
2022-12-23T08:01:19.656Z,99226.75
2022-12-23T08:06:23.904Z,99230.84
2022-12-23T08:11:26.805Z,99228.88
2022-12-23T08:16:29.981Z,99235.34
2022-12-23T08:21:34.318Z,99237.88
2022-12-23T08:26:37.212Z,99243.38
2022-12-23T08:31:40.138Z,99248.97
2022-12-23T08:36:44.362Z,99250.03
2022-12-23T08:41:48.169Z,99253.00
2022-12-23T08:46:51.559Z,99258.34
2022-12-23T08:51:56.027Z,99258.97
2022-12-23T08:56:58.871Z,99264.41
2022-12-23T09:02:03.472Z,99277.72
2022-12-23T09:07:07.887Z,99281.56
2022-12-23T09:12:10.671Z,99269.63
2022-12-23T09:17:13.663Z,99273.00
2022-12-23T09:22:17.885Z,99284.00
2022-12-23T09:27:20.691Z,99280.25
2022-12-23T09:32:23.446Z,99286.31
2022-12-23T09:37:27.663Z,99275.41
2022-12-23T09:42:40.528Z,99292.34
2022-12-23T09:47:43.359Z,99308.47
2022-12-23T09:52:50.191Z,99306.50
2022-12-23T09:57:56.613Z,99312.59
2022-12-23T10:03:09.568Z,99324.00
2022-12-23T10:08:17.504Z,99318.66
2022-12-23T10:13:25.788Z,99321.19
2022-12-23T10:18:38.567Z,99313.16
2022-12-23T10:23:43.887Z,99305.81
2022-12-23T10:28:46.643Z,99297.09
2022-12-23T10:33:55.608Z,99299.63
2022-12-23T10:39:03.730Z,99310.75
2022-12-23T10:44:17.087Z,99311.59
2022-12-23T10:49:22.352Z,99301.97
2022-12-23T10:54:28.171Z,99310.75
2022-12-23T10:59:32.394Z,99308.78
2022-12-23T11:04:36.437Z,99317.81
2022-12-23T11:09:41.994Z,99321.19
2022-12-23T11:14:52.898Z,99327.38
2022-12-23T11:20:08.757Z,99328.69
2022-12-23T11:25:27.936Z,99327.72
2022-12-23T11:30:31.105Z,99327.25
2022-12-23T11:35:35.010Z,99326.53
2022-12-23T11:40:39.451Z,99319.81
2022-12-23T11:45:42.441Z,99304.47
2022-12-23T11:50:45.828Z,99291.31
2022-12-23T11:55:59.186Z,99290.47
2022-12-23T12:01:07.127Z,99290.47
2022-12-23T12:06:10.018Z,99284.16
2022-12-23T12:11:15.209Z,99289.38
2022-12-23T12:16:24.035Z,99286.69
2022-12-23T12:21:29.478Z,99300.94
2022-12-23T12:26:34.683Z,99291.22
2022-12-23T12:31:39.542Z,99292.75
2022-12-23T12:36:45.196Z,99292.75
2022-12-23T12:41:50.660Z,99291.78
2022-12-23T12:46:55.351Z,99291.78
2022-12-23T12:52:02.291Z,99283.88
2022-12-23T12:57:07.073Z,99280.22
2022-12-23T13:02:33.033Z,99272.34
2022-12-23T13:07:39.429Z,99260.63
2022-12-23T13:12:49.392Z,99265.84
2022-12-23T13:18:03.689Z,99270.34
2022-12-23T13:23:34.327Z,99267.97
2022-12-23T13:28:35.149Z,99264.44
2022-12-23T13:33:42.020Z,99259.94
2022-12-23T13:39:04.578Z,99256.41
2022-12-23T13:44:10.662Z,99247.38
2022-12-23T13:49:17.643Z,99240.47
2022-12-23T13:54:25.830Z,99233.56
2022-12-23T13:59:39.827Z,99231.72
2022-12-23T14:04:58.531Z,99232.84
2022-12-23T14:10:11.226Z,99231.03
2022-12-23T14:15:25.451Z,99223.28
2022-12-23T14:20:31.994Z,99222.00
2022-12-23T14:25:50.641Z,99221.84
2022-12-23T14:30:55.049Z,99222.69
2022-12-23T14:35:58.589Z,99233.41
2022-12-23T14:41:25.856Z,99221.59
2022-12-23T14:47:00.406Z,99217.25
2022-12-23T14:52:44.305Z,99217.34
2022-12-23T14:57:48.362Z,99217.25
2022-12-23T15:02:53.644Z,99209.22
2022-12-23T15:07:56.893Z,99202.88
2022-12-23T15:13:01.642Z,99216.38
2022-12-23T15:18:07.149Z,99214.41
2022-12-23T15:23:10.587Z,99211.00
2022-12-23T15:28:16.992Z,99193.00
2022-12-23T15:34:00.848Z,99209.91
2022-12-23T15:38:45.599Z,99225.84
2022-12-23T15:43:48.420Z,99207.09
2022-12-23T15:48:52.738Z,99218.66
2022-12-23T15:53:57.454Z,99214.97
2022-12-23T15:59:00.639Z,99219.50
2022-12-23T16:04:05.426Z,99223.00
2022-12-23T16:09:24.625Z,99210.63
2022-12-23T16:14:38.591Z,99209.63
2022-12-23T16:19:44.062Z,99199.06
2022-12-23T16:24:47.669Z,99207.94
2022-12-23T16:29:50.483Z,99198.91
2022-12-23T16:34:55.089Z,99177.66
2022-12-23T16:39:57.966Z,99175.81
2022-12-23T16:45:00.964Z,99174.97
2022-12-23T16:50:06.044Z,99159.75
2022-12-23T16:55:14.289Z,99144.81
2022-12-23T17:00:19.389Z,99132.13
2022-12-23T17:05:23.979Z,99132.97
2022-12-23T17:10:26.795Z,99119.44
2022-12-23T17:15:30.005Z,99120.16
2022-12-23T17:20:34.321Z,99118.31
2022-12-23T17:25:37.161Z,99090.69
2022-12-23T17:30:40.946Z,99103.25
2022-12-23T17:35:45.787Z,99087.19
2022-12-23T17:40:48.680Z,99088.75
2022-12-23T17:45:51.547Z,99088.03
2022-12-23T17:50:56.887Z,99106.75
2022-12-23T17:55:59.652Z,99086.06
2022-12-23T18:01:02.587Z,99094.09
2022-12-23T18:06:09.087Z,99095.78
2022-12-23T18:11:17.938Z,99091.44
2022-12-23T18:16:20.944Z,99097.75
2022-12-23T18:21:25.838Z,99078.16
2022-12-23T18:26:28.623Z,99062.09
2022-12-23T18:31:31.506Z,99056.88
2022-12-23T18:36:35.726Z,99033.50
2022-12-23T18:41:38.541Z,99026.44
2022-12-23T18:46:41.478Z,99009.41
2022-12-23T18:51:45.789Z,98984.34
2022-12-23T18:56:49.228Z,98970.81
2022-12-23T19:01:52.155Z,98954.59
2022-12-23T19:06:56.956Z,98933.56
2022-12-23T19:11:59.737Z,98920.34
2022-12-23T19:17:02.608Z,98917.94
2022-12-23T19:22:06.880Z,98900.56
2022-12-23T19:27:09.688Z,98903.50
2022-12-23T19:32:12.576Z,98911.81
2022-12-23T19:37:16.759Z,98912.09
2022-12-23T19:42:19.645Z,98919.50
2022-12-23T19:47:22.577Z,98927.97
2022-12-23T19:52:26.780Z,98939.63
2022-12-23T19:57:29.707Z,98924.63
2022-12-23T20:02:33.018Z,98914.84
2022-12-23T20:07:37.452Z,98932.50
2022-12-23T20:12:40.336Z,98888.13
2022-12-23T20:17:43.115Z,98875.97
2022-12-23T20:22:47.372Z,98916.44
2022-12-23T20:27:50.236Z,98916.53
2022-12-23T20:32:53.106Z,98911.56
2022-12-23T20:37:57.322Z,98906.72
2022-12-23T20:43:00.105Z,98908.81
2022-12-23T20:48:03.284Z,98917.69
2022-12-23T20:53:07.617Z,98911.75
2022-12-23T20:58:27.789Z,98906.75
2022-12-23T21:03:30.556Z,98921.84
2022-12-23T21:08:34.886Z,98909.09
2022-12-23T21:13:40.185Z,98902.78
2022-12-23T21:18:43.442Z,98915.03
2022-12-23T21:23:47.821Z,98922.91
2022-12-23T21:28:51.119Z,98916.22
2022-12-23T21:33:53.982Z,98917.78
2022-12-23T21:38:58.171Z,98911.41
2022-12-23T21:44:01.156Z,98909.25
2022-12-23T21:49:04.181Z,98916.16
2022-12-23T21:54:08.575Z,98902.59
2022-12-23T21:59:12.776Z,98919.38
2022-12-23T22:04:15.806Z,98922.22
2022-12-23T22:09:20.440Z,98928.63
2022-12-23T22:14:23.356Z,98929.66
2022-12-23T22:19:26.241Z,98947.97
2022-12-23T22:24:30.445Z,98946.97
2022-12-23T22:29:33.582Z,98961.25
2022-12-23T22:34:36.343Z,98966.78
2022-12-23T22:39:40.720Z,98958.41
2022-12-23T22:44:43.504Z,98971.66
2022-12-23T22:49:46.498Z,98983.25
2022-12-23T22:54:50.904Z,98989.63
2022-12-23T22:59:53.812Z,98989.47
2022-12-23T23:04:56.606Z,99001.03
2022-12-23T23:10:00.765Z,99009.09
2022-12-23T23:15:03.726Z,99016.16
2022-12-23T23:20:08.252Z,99020.84
2022-12-23T23:25:12.941Z,99015.19
2022-12-23T23:30:16.080Z,99018.53
2022-12-23T23:35:19.425Z,99023.22
2022-12-23T23:40:23.699Z,99026.59
2022-12-23T23:45:27.389Z,99037.50
2022-12-23T23:50:31.109Z,99039.34
2022-12-23T23:55:35.246Z,99046.00
